AZU2558 SBKP-SBJP
Flight info
| Callsign | AZU2558 |
|---|---|
| Flight time | 3h 17m |
| Altitude | 37000 |
| Route | KONVI UZ23 ANBEX |
| Aircraft | A20N/M-SDE2E3FGHIRWXY/LB1 |
Departure
| Time | 2026-04-24 22:57 |
|---|---|
| Airport | Viracopos International Airport (SBKP) |
Arrival
| Time | 2026-04-25 02:15 |
|---|---|
| Airport | Presidente Castro Pinto International Airport (SBJP) |
| Time | Latitude | Longitude | Altitude | Speed | Heading |
|---|---|---|---|---|---|
| 2026-04-24 22:18 | -23.00356 | -47.14928 | 2149 ft | 0 kts | 219° |
| 2026-04-24 22:44 | -23.00349 | -47.14922 | 2147 ft | 3 kts | 219° |
| 2026-04-24 22:44 | -23.00342 | -47.14906 | 2145 ft | 3 kts | 293° |
| 2026-04-24 22:45 | -23.00343 | -47.14903 | 2145 ft | 0 kts | 307° |
| 2026-04-24 22:48 | -23.00342 | -47.14903 | 2145 ft | 0 kts | 307° |
| 2026-04-24 22:49 | -23.00316 | -47.14918 | 2147 ft | 20 kts | 329° |
| 2026-04-24 22:49 | -23.00218 | -47.15014 | 2147 ft | 17 kts | 351° |
| 2026-04-24 22:49 | -23.00124 | -47.14958 | 2146 ft | 13 kts | 38° |
| 2026-04-24 22:49 | -23.00066 | -47.14909 | 2146 ft | 10 kts | 38° |
| 2026-04-24 22:50 | -23.00020 | -47.14858 | 2147 ft | 9 kts | 57° |
| 2026-04-24 22:50 | -23.00007 | -47.14838 | 2147 ft | 0 kts | 50° |
| 2026-04-24 22:51 | -22.99967 | -47.14800 | 2147 ft | 11 kts | 39° |
| 2026-04-24 22:52 | -22.99930 | -47.14768 | 2144 ft | 0 kts | 43° |
| 2026-04-24 22:53 | -22.99899 | -47.14732 | 2145 ft | 14 kts | 56° |
| 2026-04-24 22:54 | -22.99894 | -47.14634 | 2145 ft | 13 kts | 116° |
| 2026-04-24 22:54 | -22.99904 | -47.14617 | 2147 ft | 0 kts | 127° |
| 2026-04-24 22:56 | -22.99932 | -47.14577 | 2147 ft | 31 kts | 127° |
| 2026-04-24 22:56 | -23.00203 | -47.14199 | 2152 ft | 94 kts | 128° |
| 2026-04-24 22:56 | -23.00725 | -47.13474 | 2158 ft | 148 kts | 127° |
| 2026-04-24 22:57 | -23.01416 | -47.12497 | 2345 ft | 169 kts | 128° |
| 2026-04-24 22:57 | -23.02104 | -47.11489 | 2920 ft | 166 kts | 121° |
| 2026-04-24 22:57 | -23.02270 | -47.10262 | 3360 ft | 174 kts | 82° |
| 2026-04-24 22:57 | -23.01992 | -47.08861 | 3605 ft | 205 kts | 76° |
| 2026-04-24 22:58 | -23.01618 | -47.07237 | 3805 ft | 240 kts | 77° |
| 2026-04-24 22:58 | -23.01226 | -47.05368 | 4192 ft | 264 kts | 78° |
| 2026-04-24 22:58 | -23.00845 | -47.03383 | 4928 ft | 272 kts | 78° |
| 2026-04-24 22:58 | -23.00168 | -47.01469 | 5739 ft | 275 kts | 52° |
| 2026-04-24 22:59 | -22.98765 | -47.00077 | 6635 ft | 275 kts | 35° |
| 2026-04-24 22:59 | -22.97186 | -46.98883 | 7385 ft | 279 kts | 33° |
| 2026-04-24 22:59 | -22.93976 | -46.96436 | 7971 ft | 284 kts | 35° |
| 2026-04-24 23:00 | -22.92379 | -46.95172 | 7991 ft | 284 kts | 36° |
| 2026-04-24 23:00 | -22.90795 | -46.93886 | 7989 ft | 285 kts | 37° |
| 2026-04-24 23:00 | -22.89258 | -46.92523 | 8114 ft | 286 kts | 39° |
| 2026-04-24 23:00 | -22.87729 | -46.91119 | 8720 ft | 290 kts | 39° |
| 2026-04-24 23:01 | -22.86190 | -46.89695 | 9507 ft | 290 kts | 39° |
| 2026-04-24 23:01 | -22.84652 | -46.88270 | 9960 ft | 292 kts | 39° |
| 2026-04-24 23:01 | -22.83106 | -46.86837 | 10061 ft | 293 kts | 39° |
| 2026-04-24 23:01 | -22.81541 | -46.85387 | 10089 ft | 306 kts | 39° |
| 2026-04-24 23:02 | -22.79876 | -46.83846 | 10074 ft | 314 kts | 39° |
| 2026-04-24 23:02 | -22.78243 | -46.82331 | 10086 ft | 312 kts | 40° |
| 2026-04-24 23:02 | -22.76614 | -46.80684 | 10076 ft | 322 kts | 44° |
| 2026-04-24 23:02 | -22.75063 | -46.79004 | 10092 ft | 314 kts | 44° |
| 2026-04-24 23:03 | -22.73493 | -46.77284 | 10076 ft | 327 kts | 44° |
| 2026-04-24 23:03 | -22.71931 | -46.75570 | 10090 ft | 313 kts | 44° |
| 2026-04-24 23:03 | -22.70368 | -46.73858 | 10086 ft | 326 kts | 44° |
| 2026-04-24 23:03 | -22.68793 | -46.72135 | 10091 ft | 314 kts | 44° |
| 2026-04-24 23:04 | -22.67239 | -46.70436 | 10091 ft | 324 kts | 44° |
| 2026-04-24 23:04 | -22.65704 | -46.68634 | 10079 ft | 321 kts | 53° |
| 2026-04-24 23:04 | -22.64811 | -46.66502 | 10362 ft | 310 kts | 78° |
| 2026-04-24 23:04 | -22.64705 | -46.64132 | 10647 ft | 326 kts | 92° |
| 2026-04-24 23:05 | -22.64888 | -46.61633 | 11154 ft | 339 kts | 95° |
| 2026-04-24 23:05 | -22.65118 | -46.59071 | 11829 ft | 345 kts | 95° |
| 2026-04-24 23:05 | -22.65345 | -46.56500 | 12492 ft | 350 kts | 95° |
| 2026-04-24 23:05 | -22.65569 | -46.53871 | 12942 ft | 352 kts | 95° |
| 2026-04-24 23:06 | -22.65790 | -46.51217 | 13094 ft | 355 kts | 95° |
| 2026-04-24 23:06 | -22.66008 | -46.48553 | 13119 ft | 356 kts | 95° |
| 2026-04-24 23:06 | -22.66155 | -46.46741 | 13118 ft | 357 kts | 95° |
| 2026-04-24 23:06 | -22.66371 | -46.44065 | 13118 ft | 358 kts | 95° |
| 2026-04-24 23:07 | -22.66586 | -46.41383 | 13111 ft | 357 kts | 95° |
| 2026-04-24 23:07 | -22.66800 | -46.38706 | 13122 ft | 357 kts | 95° |
| 2026-04-24 23:07 | -22.67084 | -46.35155 | 13115 ft | 357 kts | 95° |
| 2026-04-24 23:07 | -22.67227 | -46.33346 | 13117 ft | 357 kts | 95° |
| 2026-04-24 23:08 | -22.67439 | -46.30671 | 13119 ft | 357 kts | 95° |
| 2026-04-24 23:08 | -22.67651 | -46.27995 | 13122 ft | 357 kts | 95° |
| 2026-04-24 23:08 | -22.67863 | -46.25319 | 13126 ft | 357 kts | 95° |
| 2026-04-24 23:08 | -22.68032 | -46.22639 | 13135 ft | 357 kts | 91° |
| 2026-04-24 23:09 | -22.67808 | -46.19997 | 13361 ft | 360 kts | 77° |
| 2026-04-24 23:09 | -22.66969 | -46.17437 | 14058 ft | 362 kts | 62° |
| 2026-04-24 23:09 | -22.65548 | -46.15187 | 14742 ft | 363 kts | 47° |
| 2026-04-24 23:09 | -22.63760 | -46.13249 | 15424 ft | 365 kts | 41° |
| 2026-04-24 23:10 | -22.61833 | -46.11451 | 16082 ft | 368 kts | 38° |
| 2026-04-24 23:10 | -22.59828 | -46.09714 | 16747 ft | 371 kts | 36° |
| 2026-04-24 23:10 | -22.57787 | -46.07990 | 17374 ft | 374 kts | 36° |
| 2026-04-24 23:10 | -22.55732 | -46.06252 | 17986 ft | 377 kts | 36° |
| 2026-04-24 23:11 | -22.53663 | -46.04482 | 18543 ft | 381 kts | 36° |
| 2026-04-24 23:11 | -22.51585 | -46.02681 | 19015 ft | 385 kts | 37° |
| 2026-04-24 23:11 | -22.49491 | -46.00850 | 19455 ft | 389 kts | 37° |
| 2026-04-24 23:11 | -22.47383 | -45.98995 | 19925 ft | 393 kts | 37° |
| 2026-04-24 23:12 | -22.45256 | -45.97119 | 20391 ft | 397 kts | 37° |
| 2026-04-24 23:12 | -22.43108 | -45.95224 | 20883 ft | 400 kts | 37° |
| 2026-04-24 23:12 | -22.40942 | -45.93313 | 21342 ft | 404 kts | 37° |
| 2026-04-24 23:12 | -22.38756 | -45.91386 | 21823 ft | 408 kts | 37° |
| 2026-04-24 23:13 | -22.36550 | -45.89443 | 22315 ft | 411 kts | 37° |
| 2026-04-24 23:13 | -22.34325 | -45.87486 | 22794 ft | 415 kts | 37° |
| 2026-04-24 23:13 | -22.32075 | -45.85508 | 23275 ft | 419 kts | 37° |
| 2026-04-24 23:13 | -22.29805 | -45.83513 | 23752 ft | 422 kts | 37° |
| 2026-04-24 23:14 | -22.27513 | -45.81506 | 24149 ft | 426 kts | 37° |
| 2026-04-24 23:14 | -22.25193 | -45.79491 | 24566 ft | 430 kts | 37° |
| 2026-04-24 23:14 | -22.22852 | -45.77466 | 24974 ft | 433 kts | 37° |
| 2026-04-24 23:14 | -22.20491 | -45.75428 | 25391 ft | 436 kts | 37° |
| 2026-04-24 23:15 | -22.18117 | -45.73381 | 25809 ft | 439 kts | 37° |
| 2026-04-24 23:15 | -22.15721 | -45.71316 | 26193 ft | 443 kts | 37° |
| 2026-04-24 23:15 | -22.13307 | -45.69233 | 26576 ft | 446 kts | 37° |
| 2026-04-24 23:15 | -22.10874 | -45.67135 | 26954 ft | 449 kts | 37° |
| 2026-04-24 23:16 | -22.08429 | -45.65026 | 27322 ft | 452 kts | 37° |
| 2026-04-24 23:16 | -22.05964 | -45.62901 | 27696 ft | 455 kts | 37° |
| 2026-04-24 23:16 | -22.03486 | -45.60766 | 28065 ft | 458 kts | 37° |
| 2026-04-24 23:16 | -22.00991 | -45.58617 | 28436 ft | 461 kts | 37° |
| 2026-04-24 23:17 | -21.98476 | -45.56451 | 28777 ft | 464 kts | 37° |
| 2026-04-24 23:17 | -21.95952 | -45.54279 | 29130 ft | 467 kts | 37° |
| 2026-04-24 23:17 | -21.93404 | -45.52087 | 29467 ft | 470 kts | 37° |
| 2026-04-24 23:17 | -21.90843 | -45.49886 | 29808 ft | 472 kts | 37° |
| 2026-04-24 23:18 | -21.88269 | -45.47674 | 30131 ft | 475 kts | 37° |
| 2026-04-24 23:18 | -21.85677 | -45.45447 | 30414 ft | 478 kts | 37° |
| 2026-04-24 23:18 | -21.83070 | -45.43209 | 30708 ft | 480 kts | 37° |
| 2026-04-24 23:18 | -21.80485 | -45.40991 | 30990 ft | 483 kts | 37° |
| 2026-04-24 23:19 | -21.77854 | -45.38734 | 31288 ft | 485 kts | 37° |
| 2026-04-24 23:19 | -21.75214 | -45.36471 | 31564 ft | 487 kts | 37° |
| 2026-04-24 23:19 | -21.72566 | -45.34203 | 31951 ft | 486 kts | 37° |
| 2026-04-24 23:19 | -21.69927 | -45.31941 | 32384 ft | 484 kts | 37° |
| 2026-04-24 23:20 | -21.67299 | -45.29691 | 32828 ft | 482 kts | 37° |
| 2026-04-24 23:20 | -21.64678 | -45.27449 | 33218 ft | 481 kts | 37° |
| 2026-04-24 23:20 | -21.62063 | -45.25212 | 33593 ft | 480 kts | 37° |
| 2026-04-24 23:20 | -21.59447 | -45.22977 | 33965 ft | 480 kts | 37° |
| 2026-04-24 23:21 | -21.56839 | -45.20748 | 34309 ft | 479 kts | 37° |
| 2026-04-24 23:21 | -21.54233 | -45.18523 | 34643 ft | 478 kts | 37° |
| 2026-04-24 23:21 | -21.51632 | -45.16303 | 34983 ft | 477 kts | 37° |
| 2026-04-24 23:21 | -21.49039 | -45.14091 | 35318 ft | 476 kts | 37° |
| 2026-04-24 23:22 | -21.46451 | -45.11884 | 35637 ft | 474 kts | 37° |
| 2026-04-24 23:22 | -21.43872 | -45.09686 | 35949 ft | 473 kts | 37° |
| 2026-04-24 23:22 | -21.41297 | -45.07492 | 36247 ft | 472 kts | 37° |
| 2026-04-24 23:22 | -21.38727 | -45.05303 | 36522 ft | 471 kts | 37° |
| 2026-04-24 23:23 | -21.36163 | -45.03121 | 36878 ft | 469 kts | 37° |
| 2026-04-24 23:23 | -21.33610 | -45.00949 | 37095 ft | 468 kts | 37° |
| 2026-04-24 23:23 | -21.31064 | -44.98784 | 37115 ft | 467 kts | 37° |
| 2026-04-24 23:24 | -21.25972 | -44.94457 | 37116 ft | 467 kts | 37° |
| 2026-04-24 23:24 | -21.20883 | -44.90136 | 37119 ft | 467 kts | 37° |
| 2026-04-24 23:25 | -21.15789 | -44.85816 | 37113 ft | 467 kts | 37° |
| 2026-04-24 23:25 | -21.10706 | -44.81507 | 37121 ft | 466 kts | 37° |
| 2026-04-24 23:26 | -21.05624 | -44.77207 | 37120 ft | 466 kts | 37° |
| 2026-04-24 23:26 | -21.00452 | -44.73113 | 37124 ft | 466 kts | 34° |
| 2026-04-24 23:27 | -20.95160 | -44.69112 | 37124 ft | 465 kts | 34° |
| 2026-04-24 23:27 | -20.89874 | -44.65119 | 37124 ft | 465 kts | 34° |
| 2026-04-24 23:28 | -20.84599 | -44.61110 | 37130 ft | 465 kts | 34° |
| 2026-04-24 23:28 | -20.79320 | -44.57087 | 37126 ft | 466 kts | 34° |
| 2026-04-24 23:29 | -20.74046 | -44.53066 | 37131 ft | 465 kts | 34° |
| 2026-04-24 23:29 | -20.68777 | -44.49052 | 37133 ft | 465 kts | 34° |
| 2026-04-24 23:30 | -20.63507 | -44.45042 | 37130 ft | 465 kts | 34° |
| 2026-04-24 23:30 | -20.58238 | -44.41037 | 37134 ft | 465 kts | 34° |
| 2026-04-24 23:31 | -20.52973 | -44.37037 | 37132 ft | 464 kts | 34° |
| 2026-04-24 23:31 | -20.47715 | -44.33047 | 37130 ft | 464 kts | 34° |
| 2026-04-24 23:32 | -20.42466 | -44.29040 | 37133 ft | 464 kts | 35° |
| 2026-04-24 23:32 | -20.37284 | -44.24944 | 37127 ft | 463 kts | 36° |
| 2026-04-24 23:33 | -20.32127 | -44.20830 | 37133 ft | 463 kts | 36° |
| 2026-04-24 23:33 | -20.26960 | -44.16720 | 37131 ft | 464 kts | 36° |
| 2026-04-24 23:34 | -20.21792 | -44.12625 | 37130 ft | 464 kts | 36° |
| 2026-04-24 23:34 | -20.16613 | -44.08528 | 37127 ft | 463 kts | 36° |
| 2026-04-24 23:35 | -20.11443 | -44.04443 | 37136 ft | 463 kts | 36° |
| 2026-04-24 23:35 | -20.06265 | -44.00357 | 37146 ft | 463 kts | 36° |
| 2026-04-24 23:36 | -20.01120 | -43.96307 | 37149 ft | 463 kts | 36° |
| 2026-04-24 23:36 | -19.95934 | -43.92228 | 37155 ft | 464 kts | 36° |
| 2026-04-24 23:37 | -19.90748 | -43.88153 | 37155 ft | 464 kts | 36° |
| 2026-04-24 23:37 | -19.82932 | -43.82112 | 37151 ft | 463 kts | 34° |
| 2026-04-24 23:38 | -19.77602 | -43.78251 | 37146 ft | 464 kts | 33° |
| 2026-04-24 23:38 | -19.72258 | -43.74421 | 37141 ft | 464 kts | 33° |
| 2026-04-24 23:39 | -19.66918 | -43.70576 | 37143 ft | 464 kts | 33° |
| 2026-04-24 23:39 | -19.61590 | -43.66728 | 37138 ft | 463 kts | 33° |
| 2026-04-24 23:40 | -19.56264 | -43.62878 | 37133 ft | 463 kts | 33° |
| 2026-04-24 23:40 | -19.50936 | -43.59031 | 37124 ft | 463 kts | 33° |
| 2026-04-24 23:41 | -19.45608 | -43.55188 | 37117 ft | 463 kts | 33° |
| 2026-04-24 23:41 | -19.40280 | -43.51348 | 37118 ft | 463 kts | 33° |
| 2026-04-24 23:42 | -19.34967 | -43.47522 | 37120 ft | 461 kts | 34° |
| 2026-04-24 23:42 | -19.29681 | -43.43664 | 37116 ft | 461 kts | 36° |
| 2026-04-24 23:43 | -19.24524 | -43.39604 | 37118 ft | 462 kts | 37° |
| 2026-04-24 23:43 | -19.19404 | -43.35484 | 37115 ft | 462 kts | 37° |
| 2026-04-24 23:44 | -19.14292 | -43.31394 | 37111 ft | 461 kts | 37° |
| 2026-04-24 23:44 | -19.09167 | -43.27322 | 37110 ft | 460 kts | 37° |
| 2026-04-24 23:45 | -19.04042 | -43.23261 | 37108 ft | 460 kts | 37° |
| 2026-04-24 23:45 | -18.98917 | -43.19205 | 37108 ft | 460 kts | 37° |
| 2026-04-24 23:46 | -18.93788 | -43.15148 | 37110 ft | 460 kts | 37° |
| 2026-04-24 23:46 | -18.88663 | -43.11096 | 37110 ft | 460 kts | 37° |
| 2026-04-24 23:47 | -18.83532 | -43.07043 | 37107 ft | 460 kts | 36° |
| 2026-04-24 23:47 | -18.78417 | -43.03005 | 37113 ft | 458 kts | 37° |
| 2026-04-24 23:48 | -18.73311 | -42.98972 | 37113 ft | 458 kts | 37° |
| 2026-04-24 23:48 | -18.68210 | -42.94943 | 37113 ft | 458 kts | 37° |
| 2026-04-24 23:49 | -18.63100 | -42.90911 | 37110 ft | 458 kts | 37° |
| 2026-04-24 23:49 | -18.58033 | -42.86917 | 37108 ft | 457 kts | 37° |
| 2026-04-24 23:50 | -18.52950 | -42.82914 | 37105 ft | 456 kts | 37° |
| 2026-04-24 23:50 | -18.47869 | -42.78919 | 37103 ft | 456 kts | 37° |
| 2026-04-24 23:51 | -18.42776 | -42.74919 | 37102 ft | 456 kts | 37° |
| 2026-04-24 23:51 | -18.37690 | -42.70928 | 37102 ft | 456 kts | 37° |
| 2026-04-24 23:52 | -18.32612 | -42.66946 | 37099 ft | 455 kts | 37° |
| 2026-04-24 23:52 | -18.27539 | -42.62970 | 37099 ft | 455 kts | 37° |
| 2026-04-24 23:53 | -18.22463 | -42.58995 | 37092 ft | 455 kts | 37° |
| 2026-04-24 23:53 | -18.17387 | -42.55023 | 37091 ft | 455 kts | 37° |
| 2026-04-24 23:54 | -18.12317 | -42.51058 | 37092 ft | 454 kts | 37° |
| 2026-04-24 23:54 | -18.07249 | -42.47098 | 37097 ft | 454 kts | 37° |
| 2026-04-24 23:55 | -18.02184 | -42.43144 | 37091 ft | 454 kts | 37° |
| 2026-04-24 23:55 | -17.97117 | -42.39190 | 37098 ft | 453 kts | 37° |
| 2026-04-24 23:56 | -17.92908 | -42.35909 | 37097 ft | 453 kts | 37° |
| 2026-04-24 23:56 | -17.87846 | -42.31964 | 37102 ft | 453 kts | 37° |
| 2026-04-24 23:57 | -17.81961 | -42.27382 | 37104 ft | 453 kts | 37° |
| 2026-04-24 23:57 | -17.76896 | -42.23442 | 37103 ft | 453 kts | 37° |
| 2026-04-24 23:58 | -17.72658 | -42.20147 | 37112 ft | 452 kts | 37° |
| 2026-04-24 23:58 | -17.67602 | -42.16220 | 37110 ft | 452 kts | 37° |
| 2026-04-24 23:59 | -17.62543 | -42.12292 | 37113 ft | 452 kts | 37° |
| 2026-04-24 23:59 | -17.57487 | -42.08369 | 37113 ft | 452 kts | 37° |
| 2026-04-25 00:00 | -17.52428 | -42.04447 | 37116 ft | 452 kts | 37° |
| 2026-04-25 00:00 | -17.47369 | -42.00528 | 37116 ft | 452 kts | 37° |
| 2026-04-25 00:01 | -17.42313 | -41.96611 | 37114 ft | 452 kts | 37° |
| 2026-04-25 00:01 | -17.37258 | -41.92694 | 37110 ft | 452 kts | 37° |
| 2026-04-25 00:02 | -17.32198 | -41.88776 | 37111 ft | 453 kts | 37° |
| 2026-04-25 00:02 | -17.27136 | -41.84860 | 37114 ft | 453 kts | 37° |
| 2026-04-25 00:03 | -17.22100 | -41.80967 | 37108 ft | 453 kts | 37° |
| 2026-04-25 00:03 | -17.17032 | -41.77052 | 37111 ft | 453 kts | 37° |
| 2026-04-25 00:04 | -17.11967 | -41.73141 | 37104 ft | 452 kts | 37° |
| 2026-04-25 00:04 | -17.06910 | -41.69240 | 37105 ft | 451 kts | 37° |
| 2026-04-25 00:05 | -17.01859 | -41.65345 | 37108 ft | 451 kts | 37° |
| 2026-04-25 00:05 | -16.96803 | -41.61451 | 37108 ft | 451 kts | 37° |
| 2026-04-25 00:06 | -16.91752 | -41.57562 | 37104 ft | 451 kts | 37° |
| 2026-04-25 00:06 | -16.86694 | -41.53670 | 37102 ft | 451 kts | 37° |
| 2026-04-25 00:07 | -16.81642 | -41.49786 | 37102 ft | 451 kts | 37° |
| 2026-04-25 00:07 | -16.76590 | -41.45904 | 37103 ft | 451 kts | 37° |
| 2026-04-25 00:08 | -16.71537 | -41.42025 | 37106 ft | 451 kts | 37° |
| 2026-04-25 00:08 | -16.66495 | -41.38138 | 37102 ft | 451 kts | 37° |
| 2026-04-25 00:09 | -16.61467 | -41.34234 | 37101 ft | 451 kts | 37° |
| 2026-04-25 00:09 | -16.56440 | -41.30330 | 37098 ft | 450 kts | 37° |
| 2026-04-25 00:10 | -16.51413 | -41.26431 | 37101 ft | 450 kts | 37° |
| 2026-04-25 00:10 | -16.46389 | -41.22540 | 37099 ft | 450 kts | 37° |
| 2026-04-25 00:11 | -16.41402 | -41.18681 | 37096 ft | 449 kts | 37° |
| 2026-04-25 00:11 | -16.36388 | -41.14804 | 37099 ft | 449 kts | 37° |
| 2026-04-25 00:12 | -16.31377 | -41.10930 | 37100 ft | 449 kts | 37° |
| 2026-04-25 00:12 | -16.26363 | -41.07057 | 37099 ft | 449 kts | 37° |
| 2026-04-25 00:13 | -16.21347 | -41.03186 | 37105 ft | 448 kts | 38° |
| 2026-04-25 00:13 | -16.16343 | -40.99325 | 37104 ft | 448 kts | 38° |
| 2026-04-25 00:14 | -16.11340 | -40.95469 | 37102 ft | 448 kts | 38° |
| 2026-04-25 00:14 | -16.06335 | -40.91613 | 37112 ft | 448 kts | 37° |
| 2026-04-25 00:15 | -16.01331 | -40.87760 | 37108 ft | 448 kts | 38° |
| 2026-04-25 00:15 | -15.96327 | -40.83910 | 37108 ft | 447 kts | 38° |
| 2026-04-25 00:16 | -15.91326 | -40.80065 | 37108 ft | 447 kts | 38° |
| 2026-04-25 00:16 | -15.86321 | -40.76219 | 37111 ft | 447 kts | 38° |
| 2026-04-25 00:17 | -15.81315 | -40.72374 | 37104 ft | 447 kts | 38° |
| 2026-04-25 00:17 | -15.76311 | -40.68534 | 37107 ft | 447 kts | 38° |
| 2026-04-25 00:18 | -15.71308 | -40.64696 | 37108 ft | 447 kts | 38° |
| 2026-04-25 00:18 | -15.66342 | -40.60889 | 37110 ft | 447 kts | 38° |
| 2026-04-25 00:19 | -15.61340 | -40.57058 | 37109 ft | 447 kts | 38° |
| 2026-04-25 00:19 | -15.56338 | -40.53229 | 37106 ft | 447 kts | 38° |
| 2026-04-25 00:20 | -15.51343 | -40.49407 | 37104 ft | 446 kts | 38° |
| 2026-04-25 00:20 | -15.46350 | -40.45589 | 37100 ft | 446 kts | 38° |
| 2026-04-25 00:21 | -15.41356 | -40.41773 | 37102 ft | 446 kts | 38° |
| 2026-04-25 00:21 | -15.36354 | -40.37953 | 37096 ft | 446 kts | 38° |
| 2026-04-25 00:22 | -15.31360 | -40.34141 | 37101 ft | 446 kts | 38° |
| 2026-04-25 00:22 | -15.26373 | -40.30338 | 37102 ft | 445 kts | 38° |
| 2026-04-25 00:23 | -15.21389 | -40.26540 | 37102 ft | 445 kts | 38° |
| 2026-04-25 00:23 | -15.16407 | -40.22745 | 37103 ft | 445 kts | 38° |
| 2026-04-25 00:24 | -15.11419 | -40.18949 | 37100 ft | 445 kts | 38° |
| 2026-04-25 00:24 | -15.06427 | -40.15151 | 37098 ft | 444 kts | 38° |
| 2026-04-25 00:25 | -15.01451 | -40.11367 | 37097 ft | 444 kts | 38° |
| 2026-04-25 00:25 | -14.96472 | -40.07584 | 37102 ft | 444 kts | 38° |
| 2026-04-25 00:26 | -14.91503 | -40.03811 | 37099 ft | 444 kts | 38° |
| 2026-04-25 00:26 | -14.86553 | -40.00054 | 37103 ft | 444 kts | 38° |
| 2026-04-25 00:27 | -14.81575 | -39.96278 | 37097 ft | 444 kts | 38° |
| 2026-04-25 00:27 | -14.76597 | -39.92505 | 37097 ft | 444 kts | 38° |
| 2026-04-25 00:28 | -14.71622 | -39.88736 | 37099 ft | 444 kts | 38° |
| 2026-04-25 00:28 | -14.66640 | -39.84963 | 37088 ft | 444 kts | 38° |
| 2026-04-25 00:29 | -14.61662 | -39.81196 | 37089 ft | 444 kts | 38° |
| 2026-04-25 00:29 | -14.56681 | -39.77429 | 37087 ft | 444 kts | 38° |
| 2026-04-25 00:30 | -14.51703 | -39.73666 | 37089 ft | 444 kts | 38° |
| 2026-04-25 00:30 | -14.46717 | -39.69900 | 37090 ft | 444 kts | 38° |
| 2026-04-25 00:31 | -14.41733 | -39.66137 | 37083 ft | 444 kts | 38° |
| 2026-04-25 00:31 | -14.36748 | -39.62375 | 37081 ft | 443 kts | 38° |
| 2026-04-25 00:32 | -14.31775 | -39.58625 | 37084 ft | 443 kts | 38° |
| 2026-04-25 00:32 | -14.26794 | -39.54883 | 37074 ft | 443 kts | 38° |
| 2026-04-25 00:33 | -14.21804 | -39.51145 | 37080 ft | 444 kts | 38° |
| 2026-04-25 00:33 | -14.16812 | -39.47407 | 37082 ft | 444 kts | 38° |
| 2026-04-25 00:34 | -14.11853 | -39.43695 | 37081 ft | 443 kts | 38° |
| 2026-04-25 00:34 | -14.06865 | -39.39963 | 37082 ft | 443 kts | 38° |
| 2026-04-25 00:35 | -14.01881 | -39.36236 | 37075 ft | 443 kts | 38° |
| 2026-04-25 00:35 | -13.96893 | -39.32507 | 37077 ft | 443 kts | 38° |
| 2026-04-25 00:36 | -13.91904 | -39.28780 | 37070 ft | 443 kts | 38° |
| 2026-04-25 00:36 | -13.86916 | -39.25056 | 37074 ft | 443 kts | 38° |
| 2026-04-25 00:37 | -13.81924 | -39.21331 | 37066 ft | 443 kts | 38° |
| 2026-04-25 00:37 | -13.76936 | -39.17610 | 37064 ft | 443 kts | 38° |
| 2026-04-25 00:38 | -13.71942 | -39.13887 | 37066 ft | 443 kts | 38° |
| 2026-04-25 00:38 | -13.66951 | -39.10169 | 37060 ft | 443 kts | 38° |
| 2026-04-25 00:39 | -13.61962 | -39.06454 | 37064 ft | 443 kts | 38° |
| 2026-04-25 00:39 | -13.56971 | -39.02744 | 37056 ft | 442 kts | 37° |
| 2026-04-25 00:40 | -13.51981 | -38.99048 | 37059 ft | 442 kts | 37° |
| 2026-04-25 00:40 | -13.46985 | -38.95353 | 37056 ft | 442 kts | 37° |
| 2026-04-25 00:41 | -13.41993 | -38.91661 | 37051 ft | 442 kts | 37° |
| 2026-04-25 00:41 | -13.37000 | -38.87970 | 37050 ft | 442 kts | 37° |
| 2026-04-25 00:42 | -13.32005 | -38.84278 | 37047 ft | 442 kts | 37° |
| 2026-04-25 00:42 | -13.27009 | -38.80588 | 37048 ft | 442 kts | 37° |
| 2026-04-25 00:43 | -13.22047 | -38.76926 | 37048 ft | 442 kts | 37° |
| 2026-04-25 00:43 | -13.17023 | -38.73219 | 37050 ft | 442 kts | 37° |
| 2026-04-25 00:44 | -13.12062 | -38.69560 | 37048 ft | 442 kts | 38° |
| 2026-04-25 00:44 | -13.07073 | -38.65883 | 37048 ft | 442 kts | 38° |
| 2026-04-25 00:45 | -13.02082 | -38.62206 | 37048 ft | 442 kts | 38° |
| 2026-04-25 00:45 | -12.97088 | -38.58529 | 37048 ft | 442 kts | 37° |
| 2026-04-25 00:46 | -12.92095 | -38.54854 | 37046 ft | 442 kts | 37° |
| 2026-04-25 00:47 | -12.84602 | -38.49344 | 37042 ft | 441 kts | 38° |
| 2026-04-25 00:47 | -12.79614 | -38.45677 | 37042 ft | 441 kts | 38° |
| 2026-04-25 00:48 | -12.75467 | -38.42630 | 37047 ft | 441 kts | 38° |
| 2026-04-25 00:48 | -12.70477 | -38.38966 | 37047 ft | 441 kts | 37° |
| 2026-04-25 00:49 | -12.65488 | -38.35304 | 37044 ft | 441 kts | 38° |
| 2026-04-25 00:49 | -12.60503 | -38.31647 | 37045 ft | 440 kts | 38° |
| 2026-04-25 00:50 | -12.55528 | -38.27999 | 37046 ft | 440 kts | 38° |
| 2026-04-25 00:50 | -12.50548 | -38.24349 | 37045 ft | 440 kts | 38° |
| 2026-04-25 00:51 | -12.45570 | -38.20702 | 37044 ft | 440 kts | 38° |
| 2026-04-25 00:51 | -12.40588 | -38.17054 | 37043 ft | 440 kts | 38° |
| 2026-04-25 00:52 | -12.35612 | -38.13413 | 37041 ft | 439 kts | 38° |
| 2026-04-25 00:52 | -12.30641 | -38.09777 | 37042 ft | 439 kts | 38° |
| 2026-04-25 00:53 | -12.25670 | -38.06143 | 37041 ft | 439 kts | 38° |
| 2026-04-25 00:53 | -12.20694 | -38.02510 | 37039 ft | 439 kts | 37° |
| 2026-04-25 00:54 | -12.15724 | -37.98883 | 37034 ft | 439 kts | 37° |
| 2026-04-25 00:54 | -12.10780 | -37.95277 | 37038 ft | 439 kts | 37° |
| 2026-04-25 00:55 | -12.05805 | -37.91650 | 37035 ft | 439 kts | 37° |
| 2026-04-25 00:55 | -12.00829 | -37.88024 | 37032 ft | 440 kts | 37° |
| 2026-04-25 00:56 | -11.95851 | -37.84398 | 37031 ft | 440 kts | 37° |
| 2026-04-25 00:56 | -11.90870 | -37.80771 | 37031 ft | 440 kts | 37° |
| 2026-04-25 00:57 | -11.85891 | -37.77151 | 37028 ft | 439 kts | 37° |
| 2026-04-25 00:57 | -11.80917 | -37.73545 | 37030 ft | 439 kts | 37° |
| 2026-04-25 00:58 | -11.75941 | -37.69941 | 37025 ft | 438 kts | 37° |
| 2026-04-25 00:58 | -11.70969 | -37.66341 | 37026 ft | 439 kts | 37° |
| 2026-04-25 00:59 | -11.65989 | -37.62737 | 37027 ft | 439 kts | 37° |
| 2026-04-25 00:59 | -11.61014 | -37.59136 | 37024 ft | 438 kts | 37° |
| 2026-04-25 01:00 | -11.56042 | -37.55540 | 37021 ft | 438 kts | 37° |
| 2026-04-25 01:00 | -11.51073 | -37.51948 | 37021 ft | 438 kts | 37° |
| 2026-04-25 01:01 | -11.46099 | -37.48354 | 37021 ft | 438 kts | 37° |
| 2026-04-25 01:01 | -11.41131 | -37.44765 | 37017 ft | 438 kts | 37° |
| 2026-04-25 01:02 | -11.36192 | -37.41199 | 37017 ft | 438 kts | 37° |
| 2026-04-25 01:02 | -11.31222 | -37.37613 | 37015 ft | 438 kts | 37° |
| 2026-04-25 01:03 | -11.26250 | -37.34026 | 37015 ft | 438 kts | 37° |
| 2026-04-25 01:03 | -11.21279 | -37.30442 | 37013 ft | 438 kts | 37° |
| 2026-04-25 01:04 | -11.16313 | -37.26863 | 37015 ft | 438 kts | 37° |
| 2026-04-25 01:04 | -11.11341 | -37.23281 | 37015 ft | 438 kts | 37° |
| 2026-04-25 01:05 | -11.06368 | -37.19699 | 37020 ft | 438 kts | 37° |
| 2026-04-25 01:05 | -11.01388 | -37.16114 | 37019 ft | 438 kts | 36° |
| 2026-04-25 01:06 | -10.96407 | -37.12539 | 37018 ft | 438 kts | 36° |
| 2026-04-25 01:06 | -10.91415 | -37.08963 | 37021 ft | 439 kts | 36° |
| 2026-04-25 01:07 | -10.86428 | -37.05391 | 37019 ft | 438 kts | 36° |
| 2026-04-25 01:07 | -10.81438 | -37.01817 | 37017 ft | 439 kts | 35° |
| 2026-04-25 01:08 | -10.76431 | -36.98233 | 37012 ft | 441 kts | 34° |
| 2026-04-25 01:08 | -10.71417 | -36.94646 | 37010 ft | 441 kts | 34° |
| 2026-04-25 01:09 | -10.66432 | -36.91081 | 37003 ft | 441 kts | 34° |
| 2026-04-25 01:09 | -10.61419 | -36.87497 | 37007 ft | 441 kts | 34° |
| 2026-04-25 01:10 | -10.56401 | -36.83911 | 37005 ft | 441 kts | 34° |
| 2026-04-25 01:10 | -10.51388 | -36.80330 | 37008 ft | 440 kts | 34° |
| 2026-04-25 01:11 | -10.46378 | -36.76753 | 37000 ft | 440 kts | 34° |
| 2026-04-25 01:11 | -10.41366 | -36.73175 | 37004 ft | 440 kts | 34° |
| 2026-04-25 01:12 | -10.36352 | -36.69598 | 37005 ft | 440 kts | 34° |
| 2026-04-25 01:12 | -10.31338 | -36.66022 | 37006 ft | 440 kts | 34° |
| 2026-04-25 01:13 | -10.26327 | -36.62450 | 37004 ft | 440 kts | 34° |
| 2026-04-25 01:13 | -10.21317 | -36.58880 | 37007 ft | 440 kts | 34° |
| 2026-04-25 01:14 | -10.16311 | -36.55314 | 37004 ft | 440 kts | 34° |
| 2026-04-25 01:14 | -10.11301 | -36.51755 | 37007 ft | 440 kts | 34° |
| 2026-04-25 01:15 | -10.06284 | -36.48199 | 37006 ft | 440 kts | 34° |
| 2026-04-25 01:15 | -10.01269 | -36.44647 | 37002 ft | 439 kts | 34° |
| 2026-04-25 01:16 | -9.96265 | -36.41104 | 37007 ft | 438 kts | 34° |
| 2026-04-25 01:16 | -9.91263 | -36.37562 | 37006 ft | 438 kts | 34° |
| 2026-04-25 01:17 | -9.86263 | -36.34023 | 37013 ft | 438 kts | 34° |
| 2026-04-25 01:17 | -9.81260 | -36.30484 | 37010 ft | 438 kts | 34° |
| 2026-04-25 01:18 | -9.76264 | -36.26951 | 37009 ft | 438 kts | 34° |
| 2026-04-25 01:18 | -9.71306 | -36.23445 | 37008 ft | 436 kts | 34° |
| 2026-04-25 01:19 | -9.66332 | -36.19929 | 37009 ft | 436 kts | 34° |
| 2026-04-25 01:19 | -9.61361 | -36.16418 | 37013 ft | 436 kts | 34° |
| 2026-04-25 01:20 | -9.56390 | -36.12907 | 37010 ft | 436 kts | 34° |
| 2026-04-25 01:20 | -9.51416 | -36.09396 | 37014 ft | 436 kts | 34° |
| 2026-04-25 01:21 | -9.46447 | -36.05890 | 37019 ft | 436 kts | 34° |
| 2026-04-25 01:21 | -9.41476 | -36.02383 | 37018 ft | 435 kts | 34° |
| 2026-04-25 01:22 | -9.36502 | -35.98876 | 37017 ft | 436 kts | 34° |
| 2026-04-25 01:22 | -9.31523 | -35.95366 | 37011 ft | 437 kts | 34° |
| 2026-04-25 01:23 | -9.26532 | -35.91849 | 37016 ft | 437 kts | 34° |
| 2026-04-25 01:23 | -9.21549 | -35.88338 | 37008 ft | 437 kts | 34° |
| 2026-04-25 01:24 | -9.16565 | -35.84827 | 37011 ft | 436 kts | 34° |
| 2026-04-25 01:24 | -9.11593 | -35.81327 | 37008 ft | 435 kts | 34° |
| 2026-04-25 01:25 | -9.06622 | -35.77831 | 37014 ft | 435 kts | 34° |
| 2026-04-25 01:25 | -9.01506 | -35.74593 | 37002 ft | 434 kts | 21° |
| 2026-04-25 01:26 | -8.95794 | -35.72623 | 37008 ft | 434 kts | 17° |
| 2026-04-25 01:26 | -8.90021 | -35.70806 | 37006 ft | 435 kts | 17° |
| 2026-04-25 01:27 | -8.84235 | -35.69003 | 37003 ft | 435 kts | 17° |
| 2026-04-25 01:27 | -8.78448 | -35.67202 | 37006 ft | 435 kts | 17° |
| 2026-04-25 01:28 | -8.69772 | -35.64504 | 36746 ft | 434 kts | 17° |
| 2026-04-25 01:28 | -8.66891 | -35.63609 | 36258 ft | 433 kts | 17° |
| 2026-04-25 01:28 | -8.64005 | -35.62712 | 35641 ft | 435 kts | 17° |
| 2026-04-25 01:29 | -8.61092 | -35.61807 | 34936 ft | 441 kts | 17° |
| 2026-04-25 01:29 | -8.58142 | -35.60891 | 34228 ft | 446 kts | 17° |
| 2026-04-25 01:29 | -8.55155 | -35.59963 | 33325 ft | 453 kts | 18° |
| 2026-04-25 01:29 | -8.52113 | -35.59018 | 32387 ft | 460 kts | 18° |
| 2026-04-25 01:30 | -8.49050 | -35.58068 | 31771 ft | 460 kts | 18° |
| 2026-04-25 01:30 | -8.46001 | -35.57122 | 31219 ft | 457 kts | 18° |
| 2026-04-25 01:30 | -8.43011 | -35.56194 | 30675 ft | 454 kts | 19° |
| 2026-04-25 01:30 | -8.39997 | -35.55259 | 30121 ft | 452 kts | 19° |
| 2026-04-25 01:31 | -8.36995 | -35.54328 | 29470 ft | 451 kts | 19° |
| 2026-04-25 01:31 | -8.34008 | -35.53401 | 28894 ft | 447 kts | 19° |
| 2026-04-25 01:31 | -8.31051 | -35.52483 | 28335 ft | 443 kts | 19° |
| 2026-04-25 01:31 | -8.28116 | -35.51573 | 27787 ft | 440 kts | 19° |
| 2026-04-25 01:32 | -8.25206 | -35.50671 | 27288 ft | 435 kts | 19° |
| 2026-04-25 01:32 | -8.22325 | -35.49778 | 26770 ft | 431 kts | 19° |
| 2026-04-25 01:32 | -8.19468 | -35.48892 | 26260 ft | 427 kts | 19° |
| 2026-04-25 01:32 | -8.16633 | -35.48013 | 25814 ft | 423 kts | 19° |
| 2026-04-25 01:33 | -8.13833 | -35.47146 | 25315 ft | 419 kts | 19° |
| 2026-04-25 01:33 | -8.11051 | -35.46284 | 24799 ft | 417 kts | 19° |
| 2026-04-25 01:33 | -8.08300 | -35.45431 | 24323 ft | 413 kts | 19° |
| 2026-04-25 01:33 | -8.05563 | -35.44583 | 23855 ft | 409 kts | 18° |
| 2026-04-25 01:34 | -8.02853 | -35.43744 | 23332 ft | 406 kts | 18° |
| 2026-04-25 01:34 | -8.00163 | -35.42910 | 22770 ft | 402 kts | 18° |
| 2026-04-25 01:34 | -7.97494 | -35.42084 | 22207 ft | 399 kts | 18° |
| 2026-04-25 01:34 | -7.94851 | -35.41266 | 21658 ft | 396 kts | 18° |
| 2026-04-25 01:35 | -7.92224 | -35.40453 | 21118 ft | 393 kts | 18° |
| 2026-04-25 01:35 | -7.89619 | -35.39646 | 20550 ft | 390 kts | 18° |
| 2026-04-25 01:35 | -7.87032 | -35.38846 | 20031 ft | 387 kts | 18° |
| 2026-04-25 01:35 | -7.84467 | -35.38052 | 19519 ft | 384 kts | 18° |
| 2026-04-25 01:36 | -7.81919 | -35.37264 | 18991 ft | 382 kts | 18° |
| 2026-04-25 01:36 | -7.79391 | -35.36482 | 18480 ft | 379 kts | 18° |
| 2026-04-25 01:36 | -7.76880 | -35.35705 | 17949 ft | 376 kts | 18° |
| 2026-04-25 01:36 | -7.74384 | -35.34933 | 17348 ft | 373 kts | 18° |
| 2026-04-25 01:37 | -7.71917 | -35.34171 | 16861 ft | 369 kts | 18° |
| 2026-04-25 01:37 | -7.69471 | -35.33414 | 16273 ft | 367 kts | 18° |
| 2026-04-25 01:37 | -7.67036 | -35.32661 | 15742 ft | 365 kts | 18° |
| 2026-04-25 01:37 | -7.64622 | -35.31915 | 15211 ft | 362 kts | 18° |
| 2026-04-25 01:38 | -7.62226 | -35.31175 | 14686 ft | 359 kts | 19° |
| 2026-04-25 01:38 | -7.59844 | -35.30439 | 14198 ft | 356 kts | 19° |
| 2026-04-25 01:38 | -7.57482 | -35.29709 | 13664 ft | 354 kts | 19° |
| 2026-04-25 01:38 | -7.55139 | -35.28985 | 13150 ft | 350 kts | 19° |
| 2026-04-25 01:39 | -7.53603 | -35.28510 | 12758 ft | 349 kts | 19° |
| 2026-04-25 01:39 | -7.50518 | -35.27557 | 12048 ft | 345 kts | 19° |
| 2026-04-25 01:39 | -7.48229 | -35.26850 | 11520 ft | 342 kts | 18° |
| 2026-04-25 01:39 | -7.46729 | -35.26386 | 11165 ft | 340 kts | 18° |
| 2026-04-25 01:40 | -7.44473 | -35.25690 | 10666 ft | 337 kts | 18° |
| 2026-04-25 01:40 | -7.41531 | -35.24781 | 10195 ft | 327 kts | 18° |
| 2026-04-25 01:40 | -7.40079 | -35.24334 | 10072 ft | 318 kts | 18° |
| 2026-04-25 01:40 | -7.37350 | -35.23491 | 9810 ft | 303 kts | 18° |
| 2026-04-25 01:41 | -7.35345 | -35.22873 | 9340 ft | 301 kts | 18° |
| 2026-04-25 01:41 | -7.33992 | -35.22455 | 8994 ft | 301 kts | 18° |
| 2026-04-25 01:41 | -7.31992 | -35.21837 | 8533 ft | 300 kts | 19° |
| 2026-04-25 01:41 | -7.30007 | -35.21225 | 8082 ft | 298 kts | 19° |
| 2026-04-25 01:42 | -7.28024 | -35.20613 | 7624 ft | 297 kts | 19° |
| 2026-04-25 01:42 | -7.26052 | -35.20004 | 7188 ft | 295 kts | 19° |
| 2026-04-25 01:42 | -7.24090 | -35.19399 | 6751 ft | 295 kts | 19° |
| 2026-04-25 01:42 | -7.22128 | -35.18794 | 6293 ft | 294 kts | 20° |
| 2026-04-25 01:43 | -7.20182 | -35.18193 | 5873 ft | 292 kts | 20° |
| 2026-04-25 01:43 | -7.18240 | -35.17594 | 5409 ft | 291 kts | 20° |
| 2026-04-25 01:43 | -7.16325 | -35.17004 | 5087 ft | 285 kts | 20° |
| 2026-04-25 01:43 | -7.14449 | -35.16427 | 4821 ft | 278 kts | 20° |
| 2026-04-25 01:44 | -7.12624 | -35.15865 | 4550 ft | 271 kts | 20° |
| 2026-04-25 01:44 | -7.10879 | -35.15328 | 4392 ft | 260 kts | 20° |
| 2026-04-25 01:44 | -7.09179 | -35.14771 | 4240 ft | 261 kts | 26° |
| 2026-04-25 01:44 | -7.07630 | -35.13750 | 4121 ft | 267 kts | 49° |
| 2026-04-25 01:45 | -7.06717 | -35.12227 | 3997 ft | 246 kts | 79° |
| 2026-04-25 01:45 | -7.06770 | -35.10607 | 3872 ft | 225 kts | 114° |
| 2026-04-25 01:45 | -7.07698 | -35.09444 | 3756 ft | 210 kts | 148° |
| 2026-04-25 01:45 | -7.09054 | -35.09062 | 3642 ft | 202 kts | 179° |
| 2026-04-25 01:46 | -7.10411 | -35.09400 | 3531 ft | 205 kts | 201° |
| 2026-04-25 01:46 | -7.11718 | -35.09984 | 3413 ft | 206 kts | 199° |
| 2026-04-25 01:46 | -7.13049 | -35.10504 | 3297 ft | 205 kts | 197° |
| 2026-04-25 01:46 | -7.14395 | -35.10968 | 3176 ft | 204 kts | 195° |
| 2026-04-25 01:47 | -7.15745 | -35.11406 | 3095 ft | 203 kts | 194° |
| 2026-04-25 01:47 | -7.17022 | -35.12020 | 3081 ft | 207 kts | 214° |
| 2026-04-25 01:47 | -7.17877 | -35.13188 | 3087 ft | 215 kts | 248° |
| 2026-04-25 01:47 | -7.17939 | -35.14697 | 3081 ft | 222 kts | 283° |
| 2026-04-25 01:48 | -7.17104 | -35.15999 | 3085 ft | 226 kts | 322° |
| 2026-04-25 01:48 | -7.15664 | -35.16562 | 3084 ft | 224 kts | 1° |
| 2026-04-25 01:48 | -7.14133 | -35.16340 | 3090 ft | 223 kts | 18° |
| 2026-04-25 01:48 | -7.12642 | -35.15899 | 3084 ft | 224 kts | 20° |
| 2026-04-25 01:49 | -7.11157 | -35.15434 | 3086 ft | 223 kts | 20° |
| 2026-04-25 01:49 | -7.09675 | -35.14975 | 3085 ft | 223 kts | 22° |
| 2026-04-25 01:49 | -7.08325 | -35.14259 | 3079 ft | 217 kts | 46° |
| 2026-04-25 01:49 | -7.07562 | -35.13020 | 3085 ft | 206 kts | 81° |
| 2026-04-25 01:50 | -7.07631 | -35.11629 | 3084 ft | 198 kts | 114° |
| 2026-04-25 01:50 | -7.08430 | -35.10556 | 3089 ft | 196 kts | 144° |
| 2026-04-25 01:50 | -7.09709 | -35.10057 | 3088 ft | 198 kts | 174° |
| 2026-04-25 01:50 | -7.11068 | -35.10201 | 3091 ft | 202 kts | 190° |
| 2026-04-25 01:51 | -7.12429 | -35.10568 | 3084 ft | 203 kts | 193° |
| 2026-04-25 01:51 | -7.13790 | -35.10956 | 3089 ft | 203 kts | 193° |
| 2026-04-25 01:51 | -7.15152 | -35.11339 | 3087 ft | 203 kts | 192° |
| 2026-04-25 01:51 | -7.16500 | -35.11769 | 3082 ft | 204 kts | 201° |
| 2026-04-25 01:52 | -7.17610 | -35.12666 | 3081 ft | 211 kts | 233° |
| 2026-04-25 01:52 | -7.18016 | -35.14094 | 3087 ft | 220 kts | 269° |
| 2026-04-25 01:52 | -7.17520 | -35.15548 | 3084 ft | 226 kts | 307° |
| 2026-04-25 01:52 | -7.16256 | -35.16450 | 3082 ft | 226 kts | 346° |
| 2026-04-25 01:53 | -7.14717 | -35.16474 | 3096 ft | 223 kts | 14° |
| 2026-04-25 01:53 | -7.13215 | -35.16075 | 3085 ft | 224 kts | 20° |
| 2026-04-25 01:53 | -7.11729 | -35.15612 | 3081 ft | 223 kts | 20° |
| 2026-04-25 01:53 | -7.10242 | -35.15152 | 3083 ft | 223 kts | 20° |
| 2026-04-25 01:54 | -7.08800 | -35.14598 | 3081 ft | 220 kts | 34° |
| 2026-04-25 01:54 | -7.07758 | -35.13538 | 3082 ft | 210 kts | 68° |
| 2026-04-25 01:54 | -7.07507 | -35.12149 | 3083 ft | 200 kts | 101° |
| 2026-04-25 01:54 | -7.08059 | -35.10901 | 3087 ft | 196 kts | 133° |
| 2026-04-25 01:55 | -7.09186 | -35.10157 | 3087 ft | 197 kts | 162° |
| 2026-04-25 01:55 | -7.10553 | -35.10101 | 3090 ft | 200 kts | 187° |
| 2026-04-25 01:55 | -7.11918 | -35.10427 | 3088 ft | 203 kts | 192° |
| 2026-04-25 01:55 | -7.13279 | -35.10812 | 3083 ft | 203 kts | 193° |
| 2026-04-25 01:56 | -7.14642 | -35.11197 | 3087 ft | 203 kts | 192° |
| 2026-04-25 01:56 | -7.16001 | -35.11583 | 3085 ft | 203 kts | 194° |
| 2026-04-25 01:56 | -7.17253 | -35.12248 | 3075 ft | 208 kts | 220° |
| 2026-04-25 01:56 | -7.17967 | -35.13519 | 3087 ft | 217 kts | 256° |
| 2026-04-25 01:57 | -7.16793 | -35.16206 | 3084 ft | 227 kts | 331° |
| 2026-04-25 01:57 | -7.15291 | -35.16553 | 3086 ft | 223 kts | 8° |
| 2026-04-25 01:57 | -7.13773 | -35.16239 | 3087 ft | 223 kts | 19° |
| 2026-04-25 01:58 | -7.12284 | -35.15786 | 3083 ft | 223 kts | 20° |
| 2026-04-25 01:58 | -7.10801 | -35.15324 | 3084 ft | 223 kts | 20° |
| 2026-04-25 01:58 | -7.09325 | -35.14848 | 3082 ft | 222 kts | 25° |
| 2026-04-25 01:58 | -7.08072 | -35.14001 | 3079 ft | 214 kts | 54° |
| 2026-04-25 01:59 | -7.07500 | -35.12680 | 3082 ft | 204 kts | 89° |
| 2026-04-25 01:59 | -7.07764 | -35.11327 | 3084 ft | 197 kts | 122° |
| 2026-04-25 01:59 | -7.08710 | -35.10361 | 3087 ft | 196 kts | 151° |
| 2026-04-25 01:59 | -7.10010 | -35.10040 | 3086 ft | 199 kts | 180° |
| 2026-04-25 02:00 | -7.11384 | -35.10284 | 3089 ft | 202 kts | 191° |
| 2026-04-25 02:00 | -7.12744 | -35.10660 | 3086 ft | 203 kts | 192° |
| 2026-04-25 02:00 | -7.14105 | -35.11043 | 3088 ft | 203 kts | 192° |
| 2026-04-25 02:00 | -7.15469 | -35.11425 | 3087 ft | 203 kts | 192° |
| 2026-04-25 02:01 | -7.16796 | -35.11913 | 3083 ft | 205 kts | 207° |
| 2026-04-25 02:01 | -7.17782 | -35.12953 | 3084 ft | 213 kts | 242° |
| 2026-04-25 02:01 | -7.17980 | -35.14442 | 3069 ft | 222 kts | 277° |
| 2026-04-25 02:01 | -7.17277 | -35.15820 | 3068 ft | 227 kts | 315° |
| 2026-04-25 02:02 | -7.15899 | -35.16528 | 3068 ft | 225 kts | 355° |
| 2026-04-25 02:02 | -7.14360 | -35.16393 | 3074 ft | 223 kts | 17° |
| 2026-04-25 02:02 | -7.12868 | -35.15967 | 3068 ft | 223 kts | 20° |
| 2026-04-25 02:02 | -7.11383 | -35.15503 | 3066 ft | 223 kts | 20° |
| 2026-04-25 02:03 | -7.09901 | -35.15046 | 3066 ft | 223 kts | 20° |
| 2026-04-25 02:03 | -7.08506 | -35.14405 | 3063 ft | 218 kts | 41° |
| 2026-04-25 02:03 | -7.07623 | -35.13232 | 3067 ft | 208 kts | 76° |
| 2026-04-25 02:03 | -7.07565 | -35.11832 | 3064 ft | 199 kts | 109° |
| 2026-04-25 02:04 | -7.08274 | -35.10674 | 3067 ft | 196 kts | 140° |
| 2026-04-25 02:04 | -7.09484 | -35.10076 | 3068 ft | 198 kts | 169° |
| 2026-04-25 02:04 | -7.10862 | -35.10160 | 3072 ft | 202 kts | 189° |
| 2026-04-25 02:04 | -7.12227 | -35.10516 | 3066 ft | 203 kts | 193° |
| 2026-04-25 02:05 | -7.13589 | -35.10899 | 3067 ft | 204 kts | 193° |
| 2026-04-25 02:05 | -7.14954 | -35.11283 | 3067 ft | 203 kts | 192° |
| 2026-04-25 02:05 | -7.16311 | -35.11687 | 3001 ft | 204 kts | 197° |
| 2026-04-25 02:05 | -7.17489 | -35.12478 | 2959 ft | 209 kts | 228° |
| 2026-04-25 02:06 | -7.18003 | -35.13851 | 2969 ft | 218 kts | 265° |
| 2026-04-25 02:06 | -7.17627 | -35.15339 | 2968 ft | 225 kts | 301° |
| 2026-04-25 02:06 | -7.16458 | -35.16360 | 2964 ft | 226 kts | 340° |
| 2026-04-25 02:06 | -7.14934 | -35.16504 | 2970 ft | 219 kts | 13° |
| 2026-04-25 02:07 | -7.13459 | -35.16141 | 2967 ft | 218 kts | 19° |
| 2026-04-25 02:07 | -7.12011 | -35.15694 | 2966 ft | 218 kts | 20° |
| 2026-04-25 02:07 | -7.10561 | -35.15244 | 2966 ft | 218 kts | 20° |
| 2026-04-25 02:07 | -7.09151 | -35.14704 | 2864 ft | 215 kts | 39° |
| 2026-04-25 02:08 | -7.08075 | -35.13704 | 2757 ft | 210 kts | 47° |
| 2026-04-25 02:08 | -7.07059 | -35.12691 | 2685 ft | 196 kts | 49° |
| 2026-04-25 02:08 | -7.06153 | -35.11762 | 2574 ft | 177 kts | 50° |
| 2026-04-25 02:08 | -7.05335 | -35.10923 | 2494 ft | 162 kts | 51° |
| 2026-04-25 02:09 | -7.04572 | -35.10145 | 2385 ft | 147 kts | 50° |
| 2026-04-25 02:09 | -7.03871 | -35.09414 | 2280 ft | 144 kts | 55° |
| 2026-04-25 02:09 | -7.03349 | -35.08577 | 2164 ft | 140 kts | 75° |
| 2026-04-25 02:09 | -7.03177 | -35.07653 | 2083 ft | 134 kts | 96° |
| 2026-04-25 02:10 | -7.03360 | -35.06751 | 2006 ft | 130 kts | 117° |
| 2026-04-25 02:10 | -7.03846 | -35.06005 | 1915 ft | 127 kts | 135° |
| 2026-04-25 02:10 | -7.04466 | -35.05374 | 1870 ft | 127 kts | 138° |
| 2026-04-25 02:10 | -7.05095 | -35.04754 | 1860 ft | 127 kts | 138° |
| 2026-04-25 02:11 | -7.05725 | -35.04132 | 1860 ft | 127 kts | 138° |
| 2026-04-25 02:11 | -7.06354 | -35.03509 | 1868 ft | 127 kts | 138° |
| 2026-04-25 02:11 | -7.06983 | -35.02887 | 1862 ft | 127 kts | 138° |
| 2026-04-25 02:11 | -7.07611 | -35.02264 | 1869 ft | 127 kts | 138° |
| 2026-04-25 02:12 | -7.08239 | -35.01641 | 1842 ft | 127 kts | 138° |
| 2026-04-25 02:12 | -7.08868 | -35.01016 | 1735 ft | 127 kts | 138° |
| 2026-04-25 02:12 | -7.09499 | -35.00389 | 1557 ft | 128 kts | 138° |
| 2026-04-25 02:12 | -7.10133 | -34.99760 | 1357 ft | 128 kts | 138° |
| 2026-04-25 02:13 | -7.10769 | -34.99129 | 1184 ft | 129 kts | 137° |
| 2026-04-25 02:13 | -7.11412 | -34.98491 | 1025 ft | 130 kts | 139° |
| 2026-04-25 02:13 | -7.12056 | -34.97853 | 892 ft | 130 kts | 138° |
| 2026-04-25 02:13 | -7.12694 | -34.97219 | 652 ft | 128 kts | 136° |
| 2026-04-25 02:14 | -7.13337 | -34.96584 | 562 ft | 132 kts | 136° |
| 2026-04-25 02:14 | -7.13990 | -34.95930 | 317 ft | 131 kts | 136° |
| 2026-04-25 02:14 | -7.14615 | -34.95302 | 233 ft | 119 kts | 136° |
| 2026-04-25 02:14 | -7.15158 | -34.94778 | 226 ft | 95 kts | 135° |
| 2026-04-25 02:15 | -7.15470 | -34.94477 | 216 ft | 48 kts | 134° |
| 2026-04-25 02:15 | -7.15655 | -34.94310 | 220 ft | 9 kts | 99° |
| 2026-04-25 02:15 | -7.15616 | -34.94307 | 219 ft | 13 kts | 314° |
| 2026-04-25 02:15 | -7.15528 | -34.94395 | 217 ft | 23 kts | 316° |
| 2026-04-25 02:16 | -7.15378 | -34.94545 | 218 ft | 33 kts | 316° |
| 2026-04-25 02:16 | -7.15210 | -34.94708 | 220 ft | 34 kts | 314° |
| 2026-04-25 02:16 | -7.15042 | -34.94878 | 220 ft | 35 kts | 315° |
| 2026-04-25 02:16 | -7.14870 | -34.95052 | 220 ft | 35 kts | 314° |
| 2026-04-25 02:17 | -7.14772 | -34.95075 | 223 ft | 7 kts | 63° |
| 2026-04-25 02:17 | -7.14740 | -34.95028 | 224 ft | 0 kts | 47° |
| 2026-04-25 02:18 | -7.14735 | -34.95023 | 220 ft | 3 kts | 45° |
| 2026-04-25 02:18 | -7.14670 | -34.95022 | 226 ft | 13 kts | 317° |
| 2026-04-25 02:18 | -7.14582 | -34.95042 | 221 ft | 18 kts | 25° |
| 2026-04-25 02:19 | -7.14553 | -34.95016 | 222 ft | 1 kts | 85° |
| 2026-04-25 02:19 | -7.14557 | -34.95009 | 222 ft | 2 kts | 111° |
| 2026-04-25 02:19 | -7.14575 | -34.94978 | 222 ft | 0 kts | 142° |